Time;durP1;ratioP1;P1;durP2;ratioP2;P2;SDS_P1;SDS_P2;PMS_P1;PMS_P2;Temp;Humidity;BMP_temperature;BMP_pressure;BME280_temperature;BME280_humidity;BME280_pressure;Samples;Min_cycle;Max_cycle;Signal;HPM_P1;HPM_P2
2024/01/15 00:02:14;;;;;;;12.10;11.40;;;21.10;42.40;;;;;;4973163;28;20795;-67
2024/01/15 00:04:41;;;;;;;10.40;9.80;;;21.10;42.40;;;;;;4973345;28;20477;-66
2024/01/15 00:07:09;;;;;;;10.97;10.30;;;21.10;42.40;;;;;;4973304;28;20478;-67
2024/01/15 00:09:36;;;;;;;10.00;9.50;;;21.10;42.50;;;;;;4973352;28;20486;-67
2024/01/15 00:12:03;;;;;;;10.80;10.20;;;21.00;42.40;;;;;;4973073;28;20475;-67
2024/01/15 00:14:30;;;;;;;9.60;9.20;;;21.00;42.50;;;;;;4980859;28;20439;-67
2024/01/15 00:16:58;;;;;;;10.43;9.83;;;21.00;42.50;;;;;;4992300;28;20478;-67
2024/01/15 00:19:26;;;;;;;10.00;9.60;;;21.00;42.50;;;;;;4992323;28;20494;-67
2024/01/15 00:21:54;;;;;;;11.17;10.67;;;21.00;42.50;;;;;;4992287;28;20638;-67
2024/01/15 00:24:20;;;;;;;11.57;10.50;;;21.00;42.60;;;;;;4992597;28;20478;-67
2024/01/15 00:26:47;;;;;;;10.30;9.80;;;20.90;42.60;;;;;;4992374;28;20478;-67
2024/01/15 00:29:14;;;;;;;10.73;10.33;;;20.90;42.70;;;;;;4992252;28;20467;-67
2024/01/15 00:31:41;;;;;;;11.13;10.63;;;20.90;42.80;;;;;;4992205;28;20470;-67
2024/01/15 00:34:10;;;;;;;10.67;9.97;;;20.90;42.80;;;;;;4992245;28;20521;-67
2024/01/15 00:36:37;;;;;;;10.13;9.73;;;20.90;42.80;;;;;;4992390;28;20454;-67
2024/01/15 00:39:04;;;;;;;10.93;10.40;;;20.90;42.90;;;;;;4992131;28;20490;-67
2024/01/15 00:41:32;;;;;;;11.47;10.87;;;20.90;42.80;;;;;;4992380;28;20450;-67
2024/01/15 00:43:58;;;;;;;9.73;9.33;;;20.90;42.80;;;;;;4992258;28;20471;-67
2024/01/15 00:46:25;;;;;;;10.30;9.80;;;20.90;42.90;;;;;;4992187;28;20904;-67
2024/01/15 00:48:52;;;;;;;11.40;10.73;;;20.90;42.80;;;;;;4992100;28;20513;-67
2024/01/15 00:51:20;;;;;;;10.83;10.33;;;20.90;42.90;;;;;;4992153;28;20548;-67
2024/01/15 00:53:48;;;;;;;10.60;10.10;;;20.80;42.80;;;;;;4992103;28;21019;-67
2024/01/15 00:56:14;;;;;;;10.13;9.73;;;20.80;42.90;;;;;;4992115;28;20443;-67
2024/01/15 00:58:41;;;;;;;10.57;10.17;;;20.80;42.90;;;;;;4992121;28;20901;-67
2024/01/15 01:01:08;;;;;;;9.90;9.50;;;20.90;42.90;;;;;;4992075;28;20470;-67
2024/01/15 01:03:35;;;;;;;9.30;8.90;;;20.80;42.90;;;;;;4992126;28;20466;-67
2024/01/15 01:06:02;;;;;;;9.80;9.40;;;20.80;42.90;;;;;;4991975;28;20439;-67
2024/01/15 01:08:31;;;;;;;10.70;10.20;;;20.80;43.00;;;;;;4991990;28;20929;-67
2024/01/15 01:10:57;;;;;;;10.07;9.67;;;20.80;43.00;;;;;;4992075;28;20475;-67
2024/01/15 01:13:24;;;;;;;10.80;10.20;;;20.80;43.10;;;;;;4991830;28;20529;-67
2024/01/15 01:15:51;;;;;;;10.90;10.40;;;20.80;43.00;;;;;;4973601;28;20478;-67
2024/01/15 01:18:18;;;;;;;10.83;10.33;;;20.80;43.10;;;;;;4972422;28;20491;-67
2024/01/15 01:20:45;;;;;;;10.77;10.37;;;20.70;43.00;;;;;;4972527;28;20482;-67
2024/01/15 01:23:13;;;;;;;10.93;10.20;;;20.70;43.00;;;;;;4972383;28;20499;-66
2024/01/15 01:25:41;;;;;;;10.47;9.97;;;20.80;43.10;;;;;;4972471;28;20696;-67
2024/01/15 01:28:08;;;;;;;10.20;9.80;;;20.70;43.10;;;;;;4974672;28;20495;-67
2024/01/15 01:30:35;;;;;;;10.90;10.30;;;20.70;43.10;;;;;;4975956;28;20491;-67
2024/01/15 01:33:01;;;;;;;9.60;9.20;;;20.70;43.10;;;;;;4975894;28;20519;-67
2024/01/15 01:35:28;;;;;;;10.47;9.97;;;20.70;43.10;;;;;;4975896;28;20475;-67
2024/01/15 01:37:55;;;;;;;11.00;10.50;;;20.70;43.20;;;;;;4975790;28;20579;-67
2024/01/15 01:40:22;;;;;;;10.37;9.87;;;20.70;43.10;;;;;;4975903;28;20568;-67
2024/01/15 01:42:50;;;;;;;11.20;10.60;;;20.70;43.10;;;;;;4975741;28;20468;-67
2024/01/15 01:45:17;;;;;;;10.60;10.10;;;20.70;43.10;;;;;;4975634;28;20483;-66
2024/01/15 01:47:44;;;;;;;11.23;10.77;;;20.70;43.30;;;;;;4975525;28;20587;-66
2024/01/15 01:50:12;;;;;;;10.40;9.80;;;20.70;43.30;;;;;;4975733;28;20482;-66
2024/01/15 01:52:40;;;;;;;11.00;10.40;;;20.70;43.30;;;;;;4975475;28;20447;-67
2024/01/15 01:55:10;;;;;;;11.27;10.77;;;20.60;43.20;;;;;;4975483;28;20490;-67
2024/01/15 01:57:37;;;;;;;10.17;9.70;;;20.70;43.30;;;;;;4975463;28;20865;-66
2024/01/15 02:00:06;;;;;;;10.17;9.67;;;20.60;43.80;;;;;;4975543;28;20474;-66
2024/01/15 02:02:34;;;;;;;10.00;9.50;;;20.70;43.40;;;;;;4975316;28;20507;-67
2024/01/15 02:05:01;;;;;;;10.00;9.60;;;20.60;43.30;;;;;;4975296;28;20483;-66
2024/01/15 02:07:28;;;;;;;9.53;9.20;;;20.60;43.30;;;;;;4975237;28;20902;-67
2024/01/15 02:09:55;;;;;;;10.37;9.90;;;20.60;43.30;;;;;;4975346;28;20444;-67
2024/01/15 02:12:22;;;;;;;10.83;10.33;;;20.60;43.90;;;;;;4975388;28;20443;-67
2024/01/15 02:14:49;;;;;;;11.20;10.60;;;20.60;43.30;;;;;;4985520;28;20529;-66
2024/01/15 02:17:17;;;;;;;10.53;10.13;;;20.60;43.40;;;;;;4994621;28;20470;-67
2024/01/15 02:19:44;;;;;;;9.60;9.20;;;20.60;43.30;;;;;;4994546;28;20471;-67
2024/01/15 02:22:11;;;;;;;12.30;11.30;;;20.60;43.30;;;;;;4994356;28;20478;-67
2024/01/15 02:24:39;;;;;;;10.33;9.83;;;20.60;43.30;;;;;;4994452;28;20489;-67
2024/01/15 02:27:06;;;;;;;11.27;10.80;;;20.60;43.40;;;;;;4994721;28;20991;-67
2024/01/15 02:29:33;;;;;;;10.70;10.20;;;20.60;43.50;;;;;;4994431;28;20703;-67
2024/01/15 02:32:00;;;;;;;10.33;9.87;;;20.60;43.40;;;;;;4994218;28;20848;-66
2024/01/15 02:34:27;;;;;;;10.23;9.77;;;20.60;43.40;;;;;;4994209;28;20518;-66
2024/01/15 02:36:53;;;;;;;10.23;9.80;;;20.60;43.40;;;;;;4994322;28;20475;-67
2024/01/15 02:39:20;;;;;;;11.00;10.50;;;20.60;43.50;;;;;;4993805;28;20494;-67
2024/01/15 02:41:49;;;;;;;10.47;9.80;;;20.60;43.50;;;;;;4993950;28;20481;-66
2024/01/15 02:44:15;;;;;;;10.17;9.67;;;20.60;43.60;;;;;;4994213;28;20471;-67
2024/01/15 02:46:42;;;;;;;10.30;9.90;;;20.60;43.50;;;;;;4994072;28;20954;-67
2024/01/15 02:49:09;;;;;;;11.10;10.50;;;20.60;43.50;;;;;;4994020;28;20510;-67
2024/01/15 02:51:36;;;;;;;10.73;10.33;;;20.60;43.50;;;;;;4993996;28;20479;-66
2024/01/15 02:54:03;;;;;;;10.80;10.37;;;20.50;43.50;;;;;;4993829;28;20811;-66
2024/01/15 02:56:30;;;;;;;10.60;10.13;;;20.50;43.60;;;;;;4994007;28;20478;-66
2024/01/15 02:58:58;;;;;;;11.10;10.60;;;20.50;43.60;;;;;;4991538;28;20494;-66
2024/01/15 03:01:25;;;;;;;10.93;10.43;;;20.50;43.50;;;;;;4974254;28;20518;-67
2024/01/15 03:03:52;;;;;;;10.90;10.40;;;20.50;43.50;;;;;;4974421;28;20471;-66
2024/01/15 03:06:19;;;;;;;10.43;9.93;;;20.50;43.50;;;;;;4974322;28;20471;-67
2024/01/15 03:08:45;;;;;;;10.90;10.30;;;20.50;43.60;;;;;;4974060;28;20499;-67
2024/01/15 03:11:12;;;;;;;9.50;9.20;;;20.50;43.60;;;;;;4973988;28;20480;-67
2024/01/15 03:13:39;;;;;;;10.43;9.93;;;20.50;43.60;;;;;;4975045;28;20515;-67
2024/01/15 03:16:07;;;;;;;11.00;10.50;;;20.50;43.60;;;;;;4993450;28;20954;-67
2024/01/15 03:18:34;;;;;;;9.70;9.40;;;20.50;43.70;;;;;;4993287;28;20502;-67
2024/01/15 03:21:02;;;;;;;10.53;9.93;;;20.50;43.70;;;;;;4993329;28;20475;-66
2024/01/15 03:23:28;;;;;;;10.93;10.33;;;20.50;43.70;;;;;;4993321;28;20450;-66
2024/01/15 03:25:56;;;;;;;10.40;9.90;;;20.50;43.70;;;;;;4993375;28;20934;-66
2024/01/15 03:28:23;;;;;;;10.70;10.20;;;20.50;43.70;;;;;;4993127;28;20498;-67
2024/01/15 03:30:49;;;;;;;10.83;10.37;;;20.50;43.70;;;;;;4993272;28;20470;-67
2024/01/15 03:33:18;;;;;;;10.60;10.20;;;20.50;43.70;;;;;;4993150;28;20475;-66
2024/01/15 03:35:45;;;;;;;11.27;10.77;;;20.50;43.70;;;;;;4993018;28;20475;-66
2024/01/15 03:38:12;;;;;;;10.70;10.20;;;20.50;43.70;;;;;;4993079;28;20970;-66
2024/01/15 03:40:38;;;;;;;11.90;11.33;;;20.50;43.70;;;;;;4992947;28;20977;-66
2024/01/15 03:43:05;;;;;;;10.30;9.90;;;20.50;43.70;;;;;;4992989;28;20493;-66
2024/01/15 03:45:32;;;;;;;10.13;9.73;;;20.50;43.80;;;;;;4993068;28;20469;-67
2024/01/15 03:47:59;;;;;;;10.97;10.37;;;20.50;43.90;;;;;;4992828;28;20513;-67
2024/01/15 03:50:27;;;;;;;10.50;10.10;;;20.50;43.90;;;;;;4992408;28;20475;-66
2024/01/15 03:52:54;;;;;;;9.80;9.40;;;20.50;43.80;;;;;;4992911;28;20495;-66
2024/01/15 03:55:21;;;;;;;10.60;10.20;;;20.50;43.80;;;;;;4992685;28;20518;-66
2024/01/15 03:57:48;;;;;;;9.77;9.47;;;20.50;43.90;;;;;;4992656;28;20529;-66
2024/01/15 04:00:17;;;;;;;9.93;9.63;;;20.50;43.80;;;;;;4992718;28;20853;-66
2024/01/15 04:02:44;;;;;;;10.43;10.03;;;20.40;43.80;;;;;;4992795;28;20814;-66
2024/01/15 04:05:11;;;;;;;11.70;11.17;;;20.50;43.90;;;;;;4992699;28;20435;-66
2024/01/15 04:07:39;;;;;;;10.47;9.60;;;20.40;43.90;;;;;;4992545;28;20974;-67
2024/01/15 04:10:07;;;;;;;11.20;10.70;;;20.40;43.90;;;;;;4992558;28;20478;-66
2024/01/15 04:12:34;;;;;;;10.80;10.37;;;20.40;43.80;;;;;;4992849;28;20446;-67
2024/01/15 04:15:01;;;;;;;10.70;10.20;;;20.40;43.90;;;;;;4980628;28;20592;-67
2024/01/15 04:17:28;;;;;;;11.03;10.63;;;20.40;43.80;;;;;;4972878;28;20499;-66
2024/01/15 04:19:55;;;;;;;10.40;10.00;;;20.40;43.80;;;;;;4973108;28;20440;-67
2024/01/15 04:22:22;;;;;;;10.50;10.10;;;20.40;43.90;;;;;;4973176;28;20475;-67
2024/01/15 04:24:50;;;;;;;9.70;9.30;;;20.40;43.80;;;;;;4973015;28;20536;-67
2024/01/15 04:27:17;;;;;;;10.03;9.63;;;20.40;43.80;;;;;;4972885;28;20479;-67
2024/01/15 04:29:44;;;;;;;10.67;10.20;;;20.40;43.80;;;;;;4973110;28;20475;-66
2024/01/15 04:32:11;;;;;;;9.70;9.40;;;20.40;43.90;;;;;;4972687;28;20445;-67
2024/01/15 04:34:38;;;;;;;9.57;9.20;;;20.40;43.80;;;;;;4972894;28;20515;-67
2024/01/15 04:37:05;;;;;;;10.33;10.00;;;20.40;43.80;;;;;;4972856;28;20483;-66
2024/01/15 04:39:32;;;;;;;10.23;9.87;;;20.40;43.80;;;;;;4972798;28;20500;-66
2024/01/15 04:42:00;;;;;;;10.00;9.70;;;20.40;43.90;;;;;;4972894;28;20966;-66
2024/01/15 04:44:27;;;;;;;9.37;9.07;;;20.40;43.90;;;;;;4972886;28;20472;-66
2024/01/15 04:46:54;;;;;;;11.10;10.53;;;20.40;44.00;;;;;;4972787;28;20479;-66
2024/01/15 04:49:21;;;;;;;9.60;9.30;;;20.40;43.90;;;;;;4972573;28;20537;-66
2024/01/15 04:51:48;;;;;;;10.00;9.60;;;20.40;43.90;;;;;;4972654;28;20516;-66
2024/01/15 04:54:17;;;;;;;9.57;9.20;;;20.40;44.00;;;;;;4972708;28;20574;-66
2024/01/15 04:56:44;;;;;;;10.03;9.70;;;20.40;43.90;;;;;;4972830;28;20448;-67
2024/01/15 04:59:12;;;;;;;9.83;9.53;;;20.40;43.90;;;;;;4972669;28;20499;-66
2024/01/15 05:01:39;;;;;;;9.83;9.53;;;20.40;44.00;;;;;;4974106;28;20533;-66
2024/01/15 05:04:06;;;;;;;9.20;8.90;;;20.40;44.00;;;;;;4976431;28;20483;-66
2024/01/15 05:06:33;;;;;;;9.70;9.40;;;20.40;44.00;;;;;;4976493;28;20484;-67
2024/01/15 05:09:00;;;;;;;10.27;9.77;;;20.40;44.00;;;;;;4976495;28;20491;-66
2024/01/15 05:11:27;;;;;;;10.03;9.63;;;20.40;43.90;;;;;;4976272;28;20443;-66
2024/01/15 05:13:54;;;;;;;10.50;10.00;;;20.40;44.10;;;;;;4979057;28;20518;-66
2024/01/15 05:16:22;;;;;;;9.77;9.47;;;20.40;43.90;;;;;;4995796;28;20470;-67
2024/01/15 05:18:49;;;;;;;10.13;9.73;;;20.40;43.80;;;;;;4995785;28;20549;-66
2024/01/15 05:21:16;;;;;;;11.70;11.20;;;20.40;43.90;;;;;;4995639;28;20450;-66
2024/01/15 05:23:43;;;;;;;11.40;11.07;;;20.40;43.90;;;;;;4995595;28;20855;-66
2024/01/15 05:26:10;;;;;;;10.50;10.10;;;20.40;44.00;;;;;;4995556;28;20493;-66
2024/01/15 05:28:37;;;;;;;10.30;9.90;;;20.40;44.00;;;;;;4995434;28;20469;-66
2024/01/15 05:31:04;;;;;;;11.27;10.87;;;20.40;44.00;;;;;;4995401;28;20894;-66
2024/01/15 05:33:33;;;;;;;10.80;10.40;;;20.40;43.90;;;;;;4995364;28;20438;-66
2024/01/15 05:35:59;;;;;;;10.43;10.10;;;20.40;43.90;;;;;;4995376;28;20521;-66
2024/01/15 05:38:25;;;;;;;10.27;9.97;;;20.40;43.90;;;;;;4995509;28;20499;-67
2024/01/15 05:40:52;;;;;;;10.00;9.60;;;20.40;43.80;;;;;;4995251;28;20207;-66
2024/01/15 05:43:19;;;;;;;10.53;10.13;;;20.50;43.80;;;;;;4995166;28;20443;-66
2024/01/15 05:45:46;;;;;;;11.00;10.70;;;20.40;43.70;;;;;;4995092;28;20482;-66
2024/01/15 05:48:13;;;;;;;10.00;9.60;;;20.40;44.10;;;;;;4995269;28;20889;-66
2024/01/15 05:50:43;;;;;;;10.60;10.23;;;20.40;44.20;;;;;;4995036;28;20485;-66
2024/01/15 05:53:09;;;;;;;11.70;11.20;;;20.40;44.30;;;;;;4995005;28;20439;-66
2024/01/15 05:55:38;;;;;;;11.27;10.80;;;20.40;44.20;;;;;;4995080;28;20482;-66
2024/01/15 05:58:05;;;;;;;10.53;10.23;;;20.40;44.00;;;;;;4995339;28;20470;-66
2024/01/15 06:00:32;;;;;;;10.50;10.20;;;20.50;44.10;;;;;;4994885;28;20918;-66
2024/01/15 06:03:00;;;;;;;10.40;10.00;;;20.40;43.80;;;;;;4994915;28;20449;-67
2024/01/15 06:05:27;;;;;;;9.73;9.43;;;20.50;43.70;;;;;;4988485;28;20499;-66
2024/01/15 06:07:55;;;;;;;11.23;10.30;;;20.50;43.70;;;;;;4975440;28;20471;-66
2024/01/15 06:10:22;;;;;;;11.30;10.70;;;20.50;43.80;;;;;;4975643;28;20490;-66
2024/01/15 06:12:49;;;;;;;11.70;11.27;;;20.50;44.00;;;;;;4974773;28;20466;-64
2024/01/15 06:15:16;;;;;;;13.00;12.00;;;20.50;44.40;;;;;;4989035;28;20573;-69
2024/01/15 06:17:43;;;;;;;10.18;9.10;;;20.60;44.90;;;;;;5023357;22;20533;-64
2024/01/15 06:20:11;;;;;;;10.97;9.97;;;20.60;46.00;;;;;;5021950;28;20235;-64
2024/01/15 06:22:40;;;;;;;19.47;12.03;;;20.60;46.50;;;;;;5021958;28;20466;-64
2024/01/15 06:25:09;;;;;;;11.23;10.40;;;20.70;47.50;;;;;;5009273;28;20518;-65
2024/01/15 06:27:35;;;;;;;12.57;11.40;;;20.70;47.80;;;;;;5020690;28;20461;-65
2024/01/15 06:30:03;;;;;;;12.17;10.93;;;20.80;48.00;;;;;;5031633;28;20861;-65
2024/01/15 06:32:30;;;;;;;12.67;11.57;;;20.80;47.90;;;;;;5021967;28;20462;-65
2024/01/15 06:34:57;;;;;;;11.67;10.57;;;20.80;47.70;;;;;;5029830;28;20477;-66
2024/01/15 06:37:23;;;;;;;11.17;10.20;;;20.80;47.40;;;;;;5021728;28;20581;-65
2024/01/15 06:39:50;;;;;;;11.43;10.67;;;20.70;47.10;;;;;;5021780;28;20474;-66
2024/01/15 06:42:19;;;;;;;13.27;11.97;;;20.80;46.90;;;;;;5021616;28;20478;-65
2024/01/15 06:44:46;;;;;;;11.53;10.53;;;20.80;46.70;;;;;;5021283;28;20477;-66
2024/01/15 06:47:12;;;;;;;10.93;10.33;;;20.80;46.40;;;;;;5024992;28;20531;-66
2024/01/15 06:49:39;;;;;;;11.57;10.63;;;20.80;46.20;;;;;;5024878;28;20476;-65
2024/01/15 06:52:07;;;;;;;12.13;10.87;;;20.80;46.00;;;;;;5030618;28;20484;-66
2024/01/15 06:54:34;;;;;;;10.87;10.17;;;20.80;45.80;;;;;;5021320;28;20504;-66
2024/01/15 06:57:00;;;;;;;10.73;10.17;;;20.80;45.60;;;;;;5021382;28;20464;-65
2024/01/15 06:59:29;;;;;;;10.70;10.07;;;20.80;45.50;;;;;;5021304;28;20493;-66
2024/01/15 07:01:56;;;;;;;11.23;10.13;;;20.80;45.30;;;;;;5021136;28;20476;-65
2024/01/15 07:04:22;;;;;;;11.23;10.63;;;20.80;45.10;;;;;;5021314;28;20473;-66
2024/01/15 07:06:49;;;;;;;11.07;10.47;;;20.90;45.10;;;;;;5021066;28;20450;-67
2024/01/15 07:09:16;;;;;;;14.40;13.33;;;20.80;44.80;;;;;;5024464;28;20465;-66
2024/01/15 07:11:46;;;;;;;10.37;9.73;;;20.80;44.70;;;;;;5024485;28;20447;-65
2024/01/15 07:14:13;;;;;;;10.60;9.90;;;20.80;44.60;;;;;;5020944;28;20446;-66
2024/01/15 07:16:42;;;;;;;12.13;11.13;;;20.80;44.50;;;;;;5020897;28;20972;-65
2024/01/15 07:19:09;;;;;;;10.13;9.57;;;20.80;44.40;;;;;;5023455;28;20500;-65
2024/01/15 07:21:35;;;;;;;11.07;10.40;;;20.80;44.30;;;;;;5026224;28;20469;-65
2024/01/15 07:24:02;;;;;;;10.03;9.57;;;20.80;44.10;;;;;;5022489;28;20473;-66
2024/01/15 07:26:31;;;;;;;10.13;9.83;;;20.80;44.10;;;;;;5023534;28;20468;-65
2024/01/15 07:28:58;;;;;;;10.50;10.20;;;20.90;44.00;;;;;;5014902;28;20505;-65
2024/01/15 07:31:25;;;;;;;10.70;10.10;;;20.80;43.90;;;;;;5020740;28;20470;-65
2024/01/15 07:33:53;;;;;;;10.80;10.27;;;20.80;43.80;;;;;;5012773;28;20878;-66
2024/01/15 07:36:20;;;;;;;11.53;10.37;;;20.90;43.90;;;;;;5023999;28;20512;-65
2024/01/15 07:38:47;;;;;;;11.37;10.87;;;20.90;43.80;;;;;;5024155;28;20469;-67
2024/01/15 07:41:14;;;;;;;11.60;10.87;;;20.80;43.60;;;;;;5020626;28;20442;-65
2024/01/15 07:43:41;;;;;;;11.00;10.50;;;20.90;43.70;;;;;;5020629;28;20477;-65
2024/01/15 07:46:08;;;;;;;11.37;10.67;;;20.90;43.60;;;;;;5022805;28;20466;-65
2024/01/15 07:48:35;;;;;;;10.20;9.80;;;20.90;43.60;;;;;;5023783;28;20496;-66
2024/01/15 07:51:04;;;;;;;10.33;10.03;;;20.90;43.50;;;;;;5022152;28;20473;-66
2024/01/15 07:53:30;;;;;;;10.50;10.00;;;20.90;43.40;;;;;;5020388;28;20454;-65
2024/01/15 07:55:58;;;;;;;10.07;9.73;;;21.00;43.40;;;;;;5020978;28;20505;-66
2024/01/15 07:58:25;;;;;;;9.30;9.00;;;21.00;43.40;;;;;;5018993;28;20493;-66
2024/01/15 08:00:52;;;;;;;10.77;10.17;;;21.00;43.40;;;;;;5028410;28;20491;-66
2024/01/15 08:03:19;;;;;;;10.50;10.10;;;21.00;43.30;;;;;;5023539;28;20816;-66
2024/01/15 08:05:46;;;;;;;11.07;10.37;;;21.00;43.20;;;;;;5023623;28;20476;-66
2024/01/15 08:08:15;;;;;;;10.10;9.60;;;21.00;43.10;;;;;;5023368;28;20476;-66
2024/01/15 08:10:41;;;;;;;11.37;10.43;;;21.00;43.00;;;;;;5023574;28;20476;-66
2024/01/15 08:13:09;;;;;;;10.63;10.23;;;21.00;43.00;;;;;;5023419;28;20474;-66
2024/01/15 08:15:35;;;;;;;10.10;9.80;;;21.00;42.90;;;;;;5025561;28;20484;-65
2024/01/15 08:18:02;;;;;;;10.40;10.07;;;21.10;42.90;;;;;;5019900;28;20465;-66
2024/01/15 08:20:29;;;;;;;11.10;10.70;;;21.10;42.90;;;;;;5016897;28;20199;-66
2024/01/15 08:22:56;;;;;;;10.10;9.70;;;21.10;42.80;;;;;;5014709;28;20442;-66
2024/01/15 08:25:25;;;;;;;11.17;10.70;;;21.10;42.80;;;;;;5020018;28;20478;-65
2024/01/15 08:27:52;;;;;;;11.00;10.63;;;21.10;42.70;;;;;;5020025;28;20472;-65
2024/01/15 08:30:20;;;;;;;11.17;10.87;;;21.10;42.70;;;;;;5019793;28;20518;-65
2024/01/15 08:32:47;;;;;;;10.77;10.37;;;21.10;42.60;;;;;;5019905;28;20945;-65
2024/01/15 08:35:14;;;;;;;11.37;11.07;;;21.10;42.60;;;;;;5022600;28;20508;-65
2024/01/15 08:37:41;;;;;;;10.80;10.37;;;21.10;42.50;;;;;;5028832;28;20967;-65
2024/01/15 08:40:08;;;;;;;11.03;10.63;;;21.10;42.50;;;;;;5028189;28;20472;-65
2024/01/15 08:42:36;;;;;;;10.67;10.27;;;21.10;42.40;;;;;;5026218;28;20470;-66
2024/01/15 08:45:04;;;;;;;11.30;10.80;;;21.10;42.40;;;;;;5026383;28;20456;-66
2024/01/15 08:47:31;;;;;;;11.40;11.10;;;21.10;42.30;;;;;;5026324;28;20493;-66
2024/01/15 08:49:58;;;;;;;11.73;11.30;;;21.10;42.30;;;;;;5026690;28;20465;-66
2024/01/15 08:52:25;;;;;;;11.03;10.53;;;21.00;42.20;;;;;;5029667;28;20528;-66
2024/01/15 08:54:52;;;;;;;11.13;10.83;;;21.00;42.20;;;;;;5021713;28;20477;-66
2024/01/15 08:57:19;;;;;;;11.10;10.67;;;21.10;42.30;;;;;;5018033;28;20472;-65
2024/01/15 08:59:47;;;;;;;10.90;10.60;;;21.10;42.20;;;;;;5018458;28;20886;-65
2024/01/15 09:02:14;;;;;;;11.20;10.60;;;21.10;42.30;;;;;;5028742;28;20444;-66
2024/01/15 09:04:42;;;;;;;10.67;10.27;;;21.10;42.20;;;;;;5029626;28;20478;-63
2024/01/15 09:07:09;;;;;;;11.17;10.87;;;21.10;42.20;;;;;;5029622;28;20519;-65
2024/01/15 09:09:36;;;;;;;10.73;10.43;;;21.10;42.10;;;;;;5029554;28;20479;-66
2024/01/15 09:12:03;;;;;;;10.90;10.60;;;21.10;42.10;;;;;;5028004;28;20468;-66
2024/01/15 09:14:30;;;;;;;10.17;9.87;;;21.10;42.00;;;;;;5031150;28;20476;-65
2024/01/15 09:16:58;;;;;;;11.00;10.47;;;21.10;42.00;;;;;;5021297;28;20509;-65
2024/01/15 09:19:25;;;;;;;10.80;10.50;;;21.10;42.00;;;;;;5029309;28;20464;-65
2024/01/15 09:21:52;;;;;;;10.90;10.50;;;21.20;42.10;;;;;;5021654;28;20473;-65
2024/01/15 09:24:19;;;;;;;10.77;10.37;;;21.20;42.00;;;;;;5029184;28;20468;-65
2024/01/15 09:26:46;;;;;;;10.70;10.40;;;21.20;42.00;;;;;;5029288;28;20437;-65
2024/01/15 09:29:15;;;;;;;11.03;10.63;;;21.20;41.90;;;;;;5026746;28;20484;-65
2024/01/15 09:31:42;;;;;;;10.50;10.20;;;21.20;41.90;;;;;;5025942;28;20808;-65
2024/01/15 09:34:11;;;;;;;10.60;10.30;;;21.20;41.90;;;;;;5027795;28;20434;-66
2024/01/15 09:36:41;;;;;;;11.50;11.10;;;21.20;41.80;;;;;;5029223;28;20481;-65
2024/01/15 09:39:09;;;;;;;11.47;11.10;;;21.20;41.80;;;;;;5021232;28;20484;-65
2024/01/15 09:41:36;;;;;;;11.10;10.80;;;21.10;41.70;;;;;;5023855;28;20943;-65
2024/01/15 09:44:04;;;;;;;10.30;10.07;;;21.10;41.70;;;;;;5026762;28;20951;-65
2024/01/15 09:46:32;;;;;;;10.33;10.13;;;21.10;41.70;;;;;;5024443;28;20908;-65
2024/01/15 09:48:59;;;;;;;10.33;10.03;;;21.10;41.60;;;;;;5022435;28;20555;-65
2024/01/15 09:51:27;;;;;;;11.33;10.97;;;21.10;41.60;;;;;;5026091;28;20488;-65
2024/01/15 09:53:56;;;;;;;11.10;10.80;;;21.10;41.60;;;;;;5018268;28;20817;-65
2024/01/15 09:56:23;;;;;;;10.27;10.07;;;21.10;41.60;;;;;;5018115;28;20500;-65
2024/01/15 09:58:51;;;;;;;10.90;10.50;;;21.10;41.50;;;;;;5025890;28;20504;-65
2024/01/15 10:01:18;;;;;;;10.27;9.97;;;21.10;41.60;;;;;;5022813;28;20449;-65
2024/01/15 10:03:45;;;;;;;10.40;10.20;;;21.10;41.50;;;;;;5020996;28;20473;-65
2024/01/15 10:06:17;;;;;;;10.67;10.40;;;21.10;41.50;;;;;;5025789;28;20477;-65
2024/01/15 10:08:49;;;;;;;10.60;10.20;;;21.10;41.50;;;;;;5025740;28;20972;-65
2024/01/15 10:11:16;;;;;;;10.60;10.30;;;21.10;41.50;;;;;;5017457;28;20870;-65
2024/01/15 10:13:44;;;;;;;11.07;10.77;;;21.10;41.50;;;;;;5025596;28;20469;-65
2024/01/15 10:16:11;;;;;;;11.00;10.60;;;21.20;41.50;;;;;;5023482;28;20566;-65
2024/01/15 10:18:39;;;;;;;11.43;11.03;;;21.20;41.50;;;;;;5019461;28;20847;-65
2024/01/15 10:21:08;;;;;;;11.10;10.70;;;21.20;41.50;;;;;;5024248;28;20518;-65
2024/01/15 10:23:36;;;;;;;9.90;9.70;;;21.20;41.50;;;;;;5022096;28;20450;-65
2024/01/15 10:26:04;;;;;;;10.60;10.30;;;21.20;41.50;;;;;;5030902;28;20453;-65
2024/01/15 10:28:32;;;;;;;11.50;11.10;;;21.20;41.40;;;;;;5033635;28;20500;-65
2024/01/15 10:31:00;;;;;;;10.93;10.63;;;21.20;41.40;;;;;;5033592;28;20445;-65
2024/01/15 10:33:27;;;;;;;10.33;10.10;;;21.20;41.40;;;;;;5033559;28;20490;-65
2024/01/15 10:35:55;;;;;;;11.03;10.70;;;21.20;41.30;;;;;;5033471;28;20519;-65
2024/01/15 10:38:23;;;;;;;10.30;10.00;;;21.20;41.30;;;;;;5033411;28;20508;-65
2024/01/15 10:40:52;;;;;;;10.33;10.03;;;21.20;41.30;;;;;;5033461;28;20524;-65
2024/01/15 10:43:21;;;;;;;10.80;10.40;;;21.20;41.30;;;;;;5033436;28;20452;-65
2024/01/15 10:45:49;;;;;;;10.50;10.30;;;21.20;41.30;;;;;;5033246;28;20742;-65
2024/01/15 10:48:19;;;;;;;10.40;10.20;;;21.20;41.20;;;;;;5033299;28;20473;-65
2024/01/15 10:50:47;;;;;;;10.90;10.60;;;21.20;41.30;;;;;;5033254;28;20952;-65
2024/01/15 10:53:17;;;;;;;10.10;9.90;;;21.20;41.20;;;;;;5033624;28;20916;-65
2024/01/15 10:55:44;;;;;;;10.53;10.23;;;21.20;41.20;;;;;;5033056;28;21015;-65
2024/01/15 10:58:11;;;;;;;10.50;10.20;;;21.20;41.20;;;;;;5033035;28;20535;-65
2024/01/15 11:00:39;;;;;;;10.07;9.83;;;21.20;41.10;;;;;;5032982;28;20446;-65
2024/01/15 11:03:07;;;;;;;10.23;10.00;;;21.20;41.10;;;;;;5033013;28;20875;-66
2024/01/15 11:05:35;;;;;;;10.57;10.37;;;21.20;41.10;;;;;;5032978;28;20480;-65
2024/01/15 11:08:02;;;;;;;11.00;10.70;;;21.20;41.10;;;;;;5032813;28;20471;-65
2024/01/15 11:10:46;;;;;;;11.03;10.73;;;21.20;41.10;;;;;;5032935;28;20944;-65
2024/01/15 11:13:21;;;;;;;11.00;10.70;;;21.20;41.00;;;;;;5033018;28;20540;-65
2024/01/15 11:16:00;;;;;;;11.47;11.07;;;21.20;41.00;;;;;;5032767;28;20846;-65
2024/01/15 11:18:28;;;;;;;11.70;11.40;;;21.20;41.00;;;;;;5032832;28;20479;-66
2024/01/15 11:21:27;;;;;;;11.20;10.90;;;21.20;41.00;;;;;;5032780;28;20475;-65
2024/01/15 11:23:57;;;;;;;10.67;10.37;;;21.20;41.00;;;;;;5032642;28;20789;-65
2024/01/15 11:26:31;;;;;;;10.97;10.67;;;21.20;41.00;;;;;;5032785;28;20445;-65
2024/01/15 11:29:00;;;;;;;11.13;10.83;;;21.20;41.00;;;;;;5032498;28;20871;-66
2024/01/15 11:31:58;;;;;;;10.27;10.07;;;21.20;41.00;;;;;;5032519;28;20446;-66
2024/01/15 11:34:53;;;;;;;10.03;9.83;;;21.20;41.00;;;;;;5032556;28;20797;-65
2024/01/15 11:37:21;;;;;;;11.70;11.20;;;21.20;41.00;;;;;;5032274;28;20495;-65
2024/01/15 11:39:47;;;;;;;11.03;10.73;;;21.20;41.00;;;;;;5032453;28;20944;-65
2024/01/15 11:42:15;;;;;;;11.10;10.80;;;21.20;41.00;;;;;;5032196;28;20948;-65
2024/01/15 11:44:42;;;;;;;10.63;10.43;;;21.20;41.00;;;;;;5032437;28;20472;-65
2024/01/15 11:47:13;;;;;;;10.80;10.50;;;21.20;40.90;;;;;;5032229;28;20483;-65
2024/01/15 11:50:02;;;;;;;11.10;10.80;;;21.20;40.90;;;;;;5032318;28;20448;-65
2024/01/15 11:52:34;;;;;;;10.30;10.10;;;21.20;40.90;;;;;;5032021;28;20948;-65
2024/01/15 11:55:13;;;;;;;10.37;10.07;;;21.20;40.80;;;;;;5032175;28;20441;-65
2024/01/15 11:57:47;;;;;;;10.60;10.30;;;21.20;40.80;;;;;;5031994;28;20491;-66
2024/01/15 12:00:15;;;;;;;10.77;10.47;;;21.20;40.80;;;;;;5032014;28;20475;-65
2024/01/15 12:02:44;;;;;;;10.10;9.80;;;21.20;40.80;;;;;;5031889;28;20440;-65
2024/01/15 12:05:12;;;;;;;10.90;10.60;;;21.20;40.70;;;;;;5031953;28;20940;-65
2024/01/15 12:07:40;;;;;;;10.83;10.60;;;21.30;40.70;;;;;;5031798;28;20461;-65
2024/01/15 12:10:11;;;;;;;10.63;10.43;;;21.20;40.60;;;;;;5032041;28;20816;-65
2024/01/15 12:12:58;;;;;;;10.00;9.80;;;21.20;40.60;;;;;;5031378;28;20868;-65
2024/01/15 12:15:25;;;;;;;11.10;10.80;;;21.20;40.70;;;;;;5032081;28;20847;-65
2024/01/15 12:17:55;;;;;;;10.23;9.97;;;21.20;40.70;;;;;;5058914;22;20546;-64
2024/01/15 12:20:22;;;;;;;11.17;10.93;;;21.20;40.70;;;;;;5062362;28;20482;-63
2024/01/15 12:22:49;;;;;;;10.07;9.87;;;21.20;40.70;;;;;;5063040;28;20528;-64
2024/01/15 12:25:16;;;;;;;10.50;10.20;;;21.20;40.60;;;;;;5061116;28;20475;-66
2024/01/15 12:27:43;;;;;;;11.13;10.83;;;21.20;40.70;;;;;;5059720;28;20477;-66
2024/01/15 12:30:13;;;;;;;10.43;10.23;;;21.20;40.70;;;;;;5051349;28;20506;-64
2024/01/15 12:32:40;;;;;;;10.00;9.80;;;21.20;40.60;;;;;;5051257;28;20471;-67
2024/01/15 12:35:09;;;;;;;10.30;10.10;;;21.20;40.60;;;;;;5051248;28;20472;-66